createdAt,value
2019-05-17T00:00:10.326Z,28.21
2019-05-17T00:02:42.748Z,28.20
2019-05-17T00:05:17.495Z,28.19
2019-05-17T00:07:49.027Z,28.19
2019-05-17T00:10:21.251Z,28.19
2019-05-17T00:12:53.501Z,28.20
2019-05-17T00:15:27.336Z,28.20
2019-05-17T00:17:59.780Z,28.22
2019-05-17T00:20:32.795Z,28.23
2019-05-17T00:23:07.071Z,28.23
2019-05-17T00:25:39.055Z,28.24
2019-05-17T00:28:11.270Z,28.25
2019-05-17T00:30:43.649Z,28.26
2019-05-17T00:33:16.942Z,28.27
2019-05-17T00:35:49.375Z,28.28
2019-05-17T00:38:21.779Z,28.29
2019-05-17T00:40:56.343Z,28.28
2019-05-17T00:43:28.216Z,28.29
2019-05-17T00:46:00.425Z,28.30
2019-05-17T00:48:32.859Z,28.30
2019-05-17T00:51:09.261Z,28.31
2019-05-17T00:53:39.024Z,28.31
2019-05-17T00:56:11.275Z,28.30
2019-05-17T00:58:43.602Z,28.29
2019-05-17T01:01:16.548Z,28.30
2019-05-17T01:03:49.000Z,28.31
2019-05-17T01:06:21.547Z,28.31
2019-05-17T01:09:00.922Z,28.31
2019-05-17T01:11:28.511Z,28.31
2019-05-17T01:14:00.675Z,28.32
2019-05-17T01:16:33.254Z,28.33
2019-05-17T01:19:06.894Z,28.32
2019-05-17T01:21:39.862Z,28.33
2019-05-17T01:24:17.313Z,28.32
2019-05-17T01:26:49.932Z,28.33
2019-05-17T01:29:22.467Z,28.32
2019-05-17T01:31:56.957Z,28.32
2019-05-17T01:34:28.613Z,28.32
2019-05-17T01:37:00.875Z,28.34
2019-05-17T01:39:33.622Z,28.34
2019-05-17T01:42:06.769Z,28.36
2019-05-17T01:44:39.133Z,28.38
2019-05-17T01:47:11.461Z,28.41
2019-05-17T01:49:43.663Z,28.48
2019-05-17T01:52:16.753Z,28.52
2019-05-17T01:54:49.234Z,28.56
2019-05-17T01:57:21.377Z,28.57
2019-05-17T01:59:53.527Z,28.54
2019-05-17T02:02:30.572Z,28.52
2019-05-17T02:05:06.482Z,28.49
2019-05-17T02:07:39.046Z,28.45
2019-05-17T02:10:12.879Z,28.43
2019-05-17T02:12:48.678Z,28.37
2019-05-17T02:15:21.172Z,28.32
2019-05-17T02:17:53.431Z,28.25
2019-05-17T02:20:27.540Z,28.17
2019-05-17T02:22:59.990Z,28.10
2019-05-17T02:25:32.321Z,28.07
2019-05-17T02:28:04.573Z,28.03
2019-05-17T02:30:36.999Z,27.98
2019-05-17T02:33:12.424Z,27.94
2019-05-17T02:35:43.247Z,27.90
2019-05-17T02:38:15.608Z,27.87
2019-05-17T02:40:47.939Z,27.86
2019-05-17T02:43:23.356Z,27.80
2019-05-17T02:45:54.182Z,27.77
2019-05-17T02:48:28.116Z,27.73
2019-05-17T02:51:03.138Z,27.68
2019-05-17T02:53:34.254Z,27.65
2019-05-17T02:56:06.629Z,27.64
2019-05-17T02:58:39.402Z,27.62
2019-05-17T03:01:12.776Z,27.61
2019-05-17T03:03:45.117Z,27.61
2019-05-17T03:06:17.639Z,27.60
2019-05-17T03:08:52.473Z,27.59
2019-05-17T03:11:23.896Z,27.59
2019-05-17T03:13:56.607Z,27.60
2019-05-17T03:16:29.352Z,27.60
2019-05-17T03:19:04.179Z,27.59
2019-05-17T03:21:35.494Z,27.61
2019-05-17T03:24:07.899Z,27.62
2019-05-17T03:26:42.701Z,27.65
2019-05-17T03:29:14.081Z,27.67
2019-05-17T03:31:53.483Z,27.70
2019-05-17T03:34:25.849Z,27.74
2019-05-17T03:36:56.278Z,27.78
2019-05-17T03:39:28.726Z,27.83
2019-05-17T03:42:02.630Z,27.87
2019-05-17T03:44:35.111Z,27.95
2019-05-17T03:47:07.644Z,28.01
2019-05-17T03:49:39.984Z,28.10
2019-05-17T03:52:13.709Z,28.16
2019-05-17T03:54:46.028Z,28.24
2019-05-17T03:57:18.365Z,28.32
2019-05-17T03:59:52.471Z,28.41
2019-05-17T04:02:25.576Z,28.52
2019-05-17T04:04:58.357Z,28.63
2019-05-17T04:07:32.929Z,28.72
2019-05-17T04:10:04.860Z,28.83
2019-05-17T04:12:37.174Z,28.91
2019-05-17T04:15:13.018Z,29.00
2019-05-17T04:17:44.491Z,29.02
2019-05-17T04:20:17.951Z,28.99
2019-05-17T04:22:52.725Z,29.01
2019-05-17T04:25:24.526Z,29.07
2019-05-17T04:27:56.696Z,29.14
2019-05-17T04:30:32.291Z,29.18
2019-05-17T04:33:04.064Z,29.19
2019-05-17T04:35:36.475Z,29.24
2019-05-17T04:38:08.776Z,29.26
2019-05-17T04:40:43.177Z,29.26
2019-05-17T04:43:15.423Z,29.26
2019-05-17T04:45:48.098Z,29.27
2019-05-17T04:48:23.307Z,29.31
2019-05-17T04:50:54.696Z,29.31
2019-05-17T04:53:27.050Z,29.34
2019-05-17T04:56:03.131Z,29.40
2019-05-17T04:58:34.462Z,29.50
2019-05-17T05:01:06.824Z,29.66
2019-05-17T05:03:39.140Z,29.99
2019-05-17T05:06:13.361Z,30.39
2019-05-17T05:08:45.927Z,30.80
2019-05-17T05:11:18.280Z,31.27
2019-05-17T05:13:53.123Z,31.78
2019-05-17T05:16:25.055Z,32.32
2019-05-17T05:18:57.853Z,32.85
2019-05-17T05:21:32.367Z,33.30
2019-05-17T05:24:04.105Z,33.75
2019-05-17T05:26:36.465Z,34.15
2019-05-17T05:29:08.799Z,34.39
2019-05-17T05:31:42.778Z,34.55
2019-05-17T05:34:15.140Z,34.78
2019-05-17T05:36:47.395Z,34.94
2019-05-17T05:39:19.627Z,35.06
2019-05-17T05:41:51.932Z,35.21
2019-05-17T05:44:26.196Z,35.45
2019-05-17T05:46:58.428Z,35.77
2019-05-17T05:49:32.029Z,36.05
2019-05-17T05:52:04.651Z,36.35
2019-05-17T05:54:37.008Z,36.58
2019-05-17T05:57:09.230Z,36.80
2019-05-17T05:59:42.651Z,37.02
2019-05-17T06:02:15.300Z,37.17
2019-05-17T06:04:51.681Z,37.26
2019-05-17T06:07:23.142Z,37.34
2019-05-17T06:09:55.538Z,37.49
2019-05-17T06:12:28.243Z,37.66
2019-05-17T06:15:02.705Z,37.77
2019-05-17T06:17:34.473Z,37.84
2019-05-17T06:20:07.286Z,37.90
2019-05-17T06:22:42.457Z,37.98
2019-05-17T06:25:15.578Z,38.11
2019-05-17T06:27:48.271Z,38.22
2019-05-17T06:30:21.993Z,38.35
2019-05-17T06:32:54.495Z,38.47
2019-05-17T06:35:26.749Z,38.58
2019-05-17T06:37:59.190Z,38.72
2019-05-17T06:40:32.300Z,38.85
2019-05-17T06:43:04.976Z,38.98
2019-05-17T06:45:38.039Z,39.09
2019-05-17T06:48:11.743Z,39.20
2019-05-17T06:50:44.558Z,39.31
2019-05-17T06:53:16.843Z,39.41
2019-05-17T06:55:49.408Z,39.48
2019-05-17T06:58:22.343Z,39.53
2019-05-17T07:00:54.958Z,39.57
2019-05-17T07:03:29.354Z,39.62
2019-05-17T07:06:02.780Z,39.68
2019-05-17T07:08:35.797Z,39.69
2019-05-17T07:11:09.753Z,39.64
2019-05-17T07:13:42.456Z,39.63
2019-05-17T07:16:14.728Z,39.66
2019-05-17T07:18:49.269Z,39.67
2019-05-17T07:21:21.039Z,39.70
2019-05-17T07:23:53.271Z,39.70
2019-05-17T07:26:25.583Z,39.69
2019-05-17T07:28:59.253Z,39.70
2019-05-17T07:31:31.509Z,39.73
2019-05-17T07:34:03.789Z,39.78
2019-05-17T07:36:35.986Z,39.82
2019-05-17T07:39:10.779Z,39.86
2019-05-17T07:41:42.954Z,39.89
2019-05-17T07:44:15.909Z,39.91
2019-05-17T07:46:51.776Z,39.94
2019-05-17T07:49:23.294Z,40.01
2019-05-17T07:51:55.567Z,40.05
2019-05-17T07:54:30.191Z,40.09
2019-05-17T07:57:03.917Z,40.18
2019-05-17T07:59:36.640Z,40.24
2019-05-17T08:02:10.656Z,40.25
2019-05-17T08:04:43.023Z,40.31
2019-05-17T08:07:15.365Z,40.34
2019-05-17T08:09:47.626Z,40.34
2019-05-17T08:12:20.020Z,40.31
2019-05-17T08:14:52.390Z,40.24
2019-05-17T08:17:26.925Z,40.21
2019-05-17T08:20:00.529Z,40.19
2019-05-17T08:22:33.361Z,40.08
2019-05-17T08:25:06.031Z,39.81
2019-05-17T08:27:40.519Z,39.53
2019-05-17T08:30:14.250Z,39.28
2019-05-17T08:32:50.272Z,39.02
2019-05-17T08:35:24.596Z,38.79
2019-05-17T08:37:57.114Z,38.53
2019-05-17T08:40:30.520Z,38.28
2019-05-17T08:43:03.059Z,38.04
2019-05-17T08:45:35.259Z,37.82
2019-05-17T08:48:09.495Z,37.62
2019-05-17T08:50:41.479Z,37.46
2019-05-17T08:53:13.726Z,37.33
2019-05-17T08:55:46.028Z,37.17
2019-05-17T08:58:21.542Z,37.05
2019-05-17T09:00:52.893Z,36.92
2019-05-17T09:03:25.192Z,36.78
2019-05-17T09:06:01.518Z,36.63
2019-05-17T09:08:31.643Z,36.50
2019-05-17T09:11:03.919Z,36.40
2019-05-17T09:13:36.245Z,36.29
2019-05-17T09:16:10.618Z,36.20
2019-05-17T09:18:42.667Z,36.12
2019-05-17T09:21:14.852Z,36.03
2019-05-17T09:23:47.172Z,35.93
2019-05-17T09:26:19.988Z,35.83
2019-05-17T09:28:52.384Z,35.72
2019-05-17T09:31:24.786Z,35.63
2019-05-17T09:33:56.987Z,35.57
2019-05-17T09:36:30.251Z,35.55
2019-05-17T09:39:02.970Z,35.53
2019-05-17T09:41:35.543Z,35.49
2019-05-17T09:44:15.159Z,35.45
2019-05-17T09:46:41.818Z,35.43
2019-05-17T09:49:14.089Z,35.34
2019-05-17T09:51:46.326Z,35.26
2019-05-17T09:54:19.471Z,35.19
2019-05-17T09:56:51.854Z,35.09
2019-05-17T09:59:24.102Z,35.05
2019-05-17T10:01:56.841Z,35.02
2019-05-17T10:04:30.447Z,34.99
2019-05-17T10:07:02.957Z,34.96
2019-05-17T10:09:35.354Z,34.93
2019-05-17T10:12:09.507Z,34.94
2019-05-17T10:14:41.869Z,34.97
2019-05-17T10:17:14.169Z,34.99
2019-05-17T10:19:46.376Z,34.96
2019-05-17T10:22:20.053Z,34.93
2019-05-17T10:24:54.288Z,34.88
2019-05-17T10:27:27.107Z,34.81
2019-05-17T10:29:59.641Z,34.77
2019-05-17T10:32:32.105Z,34.72
2019-05-17T10:35:04.395Z,34.68
2019-05-17T10:37:36.896Z,34.63
2019-05-17T10:40:11.024Z,34.59
2019-05-17T10:42:43.746Z,34.54
2019-05-17T10:45:16.505Z,34.45
2019-05-17T10:47:50.277Z,34.33
2019-05-17T10:50:22.817Z,34.24
2019-05-17T10:52:55.084Z,34.12
2019-05-17T10:55:27.372Z,34.04
2019-05-17T10:58:00.483Z,33.99
2019-05-17T11:00:34.020Z,33.98
2019-05-17T11:03:06.251Z,33.96
2019-05-17T11:05:40.202Z,33.96
2019-05-17T11:08:13.391Z,33.96
2019-05-17T11:10:45.648Z,33.97
2019-05-17T11:13:17.917Z,33.95
2019-05-17T11:15:50.158Z,33.82
2019-05-17T11:18:22.555Z,33.67
2019-05-17T11:20:54.753Z,33.53
2019-05-17T11:23:26.929Z,33.36
2019-05-17T11:25:59.294Z,33.24
2019-05-17T11:28:31.488Z,33.13
2019-05-17T11:31:03.781Z,33.04
2019-05-17T11:33:36.043Z,32.96
2019-05-17T11:36:08.346Z,32.88
2019-05-17T11:38:40.611Z,32.83
2019-05-17T11:41:20.988Z,32.81
2019-05-17T11:43:47.000Z,32.78
2019-05-17T11:46:19.321Z,32.73
2019-05-17T11:48:51.710Z,32.71
2019-05-17T11:51:25.698Z,32.70
2019-05-17T11:53:58.132Z,32.71
2019-05-17T11:56:30.555Z,32.70
2019-05-17T11:59:02.785Z,32.67
2019-05-17T12:01:34.998Z,32.67
2019-05-17T12:04:07.627Z,32.63
2019-05-17T12:06:40.244Z,32.53
2019-05-17T12:09:12.644Z,32.40
2019-05-17T12:11:45.279Z,32.28
2019-05-17T12:14:17.833Z,32.18
2019-05-17T12:16:50.072Z,32.06
2019-05-17T12:19:22.252Z,31.95
2019-05-17T12:21:54.635Z,31.84
2019-05-17T12:24:26.964Z,31.79
2019-05-17T12:26:59.181Z,31.78
2019-05-17T12:29:31.500Z,31.77
2019-05-17T12:32:03.879Z,31.74
2019-05-17T12:34:36.256Z,31.71
2019-05-17T12:37:08.535Z,31.68
2019-05-17T12:39:40.733Z,31.66
2019-05-17T12:42:13.264Z,31.67
2019-05-17T12:44:45.497Z,31.63
2019-05-17T12:47:17.970Z,31.60
2019-05-17T12:49:50.454Z,31.55
2019-05-17T12:52:22.789Z,31.52
2019-05-17T12:54:54.994Z,31.48
2019-05-17T12:57:27.384Z,31.39
2019-05-17T12:59:59.679Z,31.29
2019-05-17T13:02:32.008Z,31.20
2019-05-17T13:05:04.212Z,31.14
2019-05-17T13:07:36.510Z,31.08
2019-05-17T13:10:08.724Z,31.00
2019-05-17T13:12:41.010Z,30.98
2019-05-17T13:15:13.641Z,30.97
2019-05-17T13:17:45.882Z,30.92
2019-05-17T13:20:19.815Z,30.82
2019-05-17T13:22:51.909Z,30.73
2019-05-17T13:25:24.137Z,30.65
2019-05-17T13:27:56.412Z,30.58
2019-05-17T13:30:28.654Z,30.52
2019-05-17T13:33:01.827Z,30.50
2019-05-17T13:35:34.100Z,30.48
2019-05-17T13:38:06.524Z,30.46
2019-05-17T13:40:40.099Z,30.42
2019-05-17T13:43:12.841Z,30.39
2019-05-17T13:45:46.865Z,30.32
2019-05-17T13:48:19.197Z,30.24
2019-05-17T13:50:52.221Z,30.22
2019-05-17T13:53:25.033Z,30.20
2019-05-17T13:55:57.296Z,30.17
2019-05-17T13:58:29.728Z,30.13
2019-05-17T14:01:02.050Z,30.06
2019-05-17T14:03:34.269Z,29.91
2019-05-17T14:06:07.658Z,29.79
2019-05-17T14:08:39.957Z,29.69
2019-05-17T14:11:12.190Z,29.58
2019-05-17T14:13:44.640Z,29.48
2019-05-17T14:16:16.877Z,29.41
2019-05-17T14:18:49.596Z,29.37
2019-05-17T14:21:21.902Z,29.38
2019-05-17T14:23:54.159Z,29.39
2019-05-17T14:26:26.511Z,29.40
2019-05-17T14:28:58.816Z,29.38
2019-05-17T14:34:08.821Z,29.28
2019-05-17T14:36:41.441Z,29.20
2019-05-17T14:39:13.732Z,29.12
2019-05-17T14:41:46.250Z,29.07
2019-05-17T14:44:19.375Z,29.02
2019-05-17T14:46:51.579Z,28.97
2019-05-17T14:49:23.988Z,28.96
2019-05-17T14:51:56.216Z,28.96
2019-05-17T14:54:28.730Z,28.98
2019-05-17T14:57:01.019Z,29.00
2019-05-17T14:59:33.221Z,29.01
2019-05-17T15:02:05.541Z,28.96
2019-05-17T15:04:37.741Z,28.92
2019-05-17T15:07:11.396Z,28.85
2019-05-17T15:09:43.846Z,28.79
2019-05-17T15:12:27.979Z,28.76
2019-05-17T15:14:50.103Z,28.77
2019-05-17T15:17:22.582Z,28.78
2019-05-17T15:19:55.089Z,28.79
2019-05-17T15:22:27.476Z,28.82
2019-05-17T15:25:00.128Z,28.81
2019-05-17T15:27:32.638Z,28.83
2019-05-17T15:30:05.112Z,28.83
2019-05-17T15:32:37.439Z,28.77
2019-05-17T15:35:10.078Z,28.73
2019-05-17T15:37:42.412Z,28.68
2019-05-17T15:40:15.291Z,28.62
2019-05-17T15:42:47.793Z,28.57
2019-05-17T15:45:20.252Z,28.52
2019-05-17T15:47:52.716Z,28.45
2019-05-17T15:50:24.982Z,28.40
2019-05-17T15:52:57.329Z,28.32
2019-05-17T15:55:29.853Z,28.23
2019-05-17T15:58:02.117Z,28.16
2019-05-17T16:00:34.418Z,28.12
2019-05-17T16:03:06.991Z,28.08
2019-05-17T16:05:39.855Z,28.06
2019-05-17T16:08:12.581Z,28.05
2019-05-17T16:10:45.018Z,28.03
2019-05-17T16:13:17.668Z,28.00
2019-05-17T16:15:50.299Z,27.96
2019-05-17T16:18:22.674Z,27.91
2019-05-17T16:20:55.117Z,27.84
2019-05-17T16:23:27.371Z,27.79
2019-05-17T16:25:59.881Z,27.73
2019-05-17T16:28:32.146Z,27.68
2019-05-17T16:31:04.368Z,27.65
2019-05-17T16:33:36.675Z,27.60
2019-05-17T16:36:08.897Z,27.56
2019-05-17T16:38:42.203Z,27.53
2019-05-17T16:41:14.452Z,27.49
2019-05-17T16:43:47.536Z,27.47
2019-05-17T16:46:19.823Z,27.44
2019-05-17T16:48:52.290Z,27.41
2019-05-17T16:51:24.570Z,27.39
2019-05-17T16:53:56.848Z,27.35
2019-05-17T16:56:29.628Z,27.33
2019-05-17T16:59:01.988Z,27.34
2019-05-17T17:01:34.200Z,27.35
2019-05-17T17:04:06.954Z,27.37
2019-05-17T17:06:39.265Z,27.40
2019-05-17T17:09:11.823Z,27.41
2019-05-17T17:11:45.726Z,27.41
2019-05-17T17:14:18.238Z,27.40
2019-05-17T17:16:50.482Z,27.39
2019-05-17T17:19:23.590Z,27.38
2019-05-17T17:21:55.937Z,27.34
2019-05-17T17:24:28.434Z,27.32
2019-05-17T17:27:01.189Z,27.27
2019-05-17T17:29:33.831Z,27.22
2019-05-17T17:32:19.416Z,27.18
2019-05-17T17:34:40.570Z,27.16
2019-05-17T17:37:13.064Z,27.14
2019-05-17T17:39:45.323Z,27.13
2019-05-17T17:42:17.737Z,27.09
2019-05-17T17:44:50.195Z,27.07
2019-05-17T17:47:22.644Z,27.06
2019-05-17T17:49:55.466Z,27.05
2019-05-17T17:52:28.009Z,27.03
2019-05-17T17:55:00.280Z,27.00
2019-05-17T17:57:32.599Z,26.97
2019-05-17T18:00:06.295Z,26.99
2019-05-17T18:02:38.493Z,27.00
2019-05-17T18:05:11.162Z,27.04
2019-05-17T18:07:43.661Z,27.03
2019-05-17T18:10:29.912Z,27.03
2019-05-17T18:13:02.451Z,27.03
2019-05-17T18:15:46.375Z,27.03
2019-05-17T18:18:18.705Z,27.04
2019-05-17T18:20:51.051Z,27.07
2019-05-17T18:23:23.762Z,27.08
2019-05-17T18:25:56.700Z,27.07
2019-05-17T18:28:29.094Z,27.06
2019-05-17T18:31:01.379Z,27.03
2019-05-17T18:33:33.634Z,27.00
2019-05-17T18:36:06.184Z,26.97
2019-05-17T18:38:40.054Z,26.94
2019-05-17T18:41:12.448Z,26.87
2019-05-17T18:43:44.747Z,26.83
2019-05-17T18:46:17.148Z,26.81
2019-05-17T18:48:49.343Z,26.81
2019-05-17T18:51:22.052Z,26.80
2019-05-17T18:53:54.688Z,26.80
2019-05-17T18:56:26.927Z,26.81
2019-05-17T18:58:59.144Z,26.79
2019-05-17T19:01:31.490Z,26.75
2019-05-17T19:04:03.872Z,26.74
2019-05-17T19:06:36.416Z,26.72
2019-05-17T19:09:09.941Z,26.70
2019-05-17T19:11:42.935Z,26.67
2019-05-17T19:14:16.282Z,26.68
2019-05-17T19:16:48.940Z,26.69
2019-05-17T19:19:21.892Z,26.71
2019-05-17T19:21:54.385Z,26.71
2019-05-17T19:24:27.039Z,26.72
2019-05-17T19:26:59.300Z,26.70
2019-05-17T19:29:31.676Z,26.70
2019-05-17T19:32:03.907Z,26.68
2019-05-17T19:34:36.436Z,26.67
2019-05-17T19:37:08.781Z,26.66
2019-05-17T19:39:41.053Z,26.67
2019-05-17T19:42:13.355Z,26.69
2019-05-17T19:44:58.042Z,26.72
2019-05-17T19:47:19.887Z,26.73
2019-05-17T19:49:52.411Z,26.74
2019-05-17T19:52:24.841Z,26.74
2019-05-17T19:54:57.257Z,26.76
2019-05-17T19:57:29.597Z,26.79
2019-05-17T20:00:02.100Z,26.79
2019-05-17T20:02:34.843Z,26.81
2019-05-17T20:05:07.163Z,26.79
2019-05-17T20:07:39.614Z,26.77
2019-05-17T20:10:15.488Z,26.74
2019-05-17T20:12:48.016Z,26.72
2019-05-17T20:15:33.610Z,26.69
2019-05-17T20:17:54.734Z,26.66
2019-05-17T20:20:27.078Z,26.64
2019-05-17T20:23:00.293Z,26.61
2019-05-17T20:25:33.348Z,26.59
2019-05-17T20:28:05.848Z,26.58
2019-05-17T20:30:38.449Z,26.57
2019-05-17T20:33:10.690Z,26.55
2019-05-17T20:35:43.344Z,26.53
2019-05-17T20:38:15.577Z,26.50
2019-05-17T20:40:48.028Z,26.44
2019-05-17T20:43:20.471Z,26.41
2019-05-17T20:45:53.377Z,26.39
2019-05-17T20:48:26.207Z,26.36
2019-05-17T20:50:59.262Z,26.33
2019-05-17T20:53:31.674Z,26.29
2019-05-17T20:56:03.995Z,26.28
2019-05-17T20:58:36.416Z,26.27
2019-05-17T21:01:09.377Z,26.26
2019-05-17T21:03:41.868Z,26.24
2019-05-17T21:06:14.184Z,26.23
2019-05-17T21:08:46.769Z,26.22
2019-05-17T21:11:18.951Z,26.19
2019-05-17T21:13:51.982Z,26.17
2019-05-17T21:16:24.801Z,26.14
2019-05-17T21:18:57.318Z,26.10
2019-05-17T21:21:29.509Z,26.07
2019-05-17T21:24:02.011Z,26.05
2019-05-17T21:26:34.259Z,26.06
2019-05-17T21:29:06.680Z,26.06
2019-05-17T21:31:38.856Z,26.07
2019-05-17T21:34:11.068Z,26.09
2019-05-17T21:36:43.325Z,26.10
2019-05-17T21:39:15.554Z,26.12
2019-05-17T21:41:47.967Z,26.12
2019-05-17T21:44:20.233Z,26.13
2019-05-17T21:47:03.700Z,26.15
2019-05-17T21:49:26.526Z,26.16
2019-05-17T21:51:58.901Z,26.16
2019-05-17T21:54:31.198Z,26.19
2019-05-17T21:57:03.609Z,26.19
2019-05-17T21:59:35.829Z,26.17
2019-05-17T22:02:08.050Z,26.12
2019-05-17T22:04:42.746Z,26.09
2019-05-17T22:07:15.051Z,26.09
2019-05-17T22:09:47.550Z,26.10
2019-05-17T22:12:19.954Z,26.10
2019-05-17T22:14:52.168Z,26.09
2019-05-17T22:17:24.525Z,26.11
2019-05-17T22:20:00.062Z,26.12
2019-05-17T22:22:32.400Z,26.12
2019-05-17T22:25:04.579Z,26.17
2019-05-17T22:27:36.793Z,26.19
2019-05-17T22:30:09.742Z,26.22
2019-05-17T22:32:41.952Z,26.25
2019-05-17T22:35:14.270Z,26.27
2019-05-17T22:37:46.482Z,26.30
2019-05-17T22:40:18.693Z,26.33
2019-05-17T22:42:51.498Z,26.36
2019-05-17T22:45:23.941Z,26.36
2019-05-17T22:47:56.655Z,26.36
2019-05-17T22:50:29.327Z,26.38
2019-05-17T22:53:01.859Z,26.39
2019-05-17T22:55:34.293Z,26.39
2019-05-17T22:58:06.449Z,26.39
2019-05-17T23:00:38.792Z,26.39
2019-05-17T23:03:11.028Z,26.38
2019-05-17T23:05:43.397Z,26.38
2019-05-17T23:08:15.645Z,26.37
2019-05-17T23:10:48.412Z,26.37
2019-05-17T23:13:20.689Z,26.33
2019-05-17T23:16:07.692Z,26.30
2019-05-17T23:18:39.966Z,26.27
2019-05-17T23:21:13.842Z,26.22
2019-05-17T23:23:46.803Z,26.20
2019-05-17T23:26:19.751Z,26.17
2019-05-17T23:28:52.103Z,26.16
2019-05-17T23:31:24.987Z,26.12
2019-05-17T23:33:57.213Z,26.09
2019-05-17T23:36:29.938Z,26.06
2019-05-17T23:39:02.117Z,26.02
2019-05-17T23:41:34.394Z,25.99
2019-05-17T23:44:06.604Z,25.97
2019-05-17T23:46:38.790Z,25.93
2019-05-17T23:49:11.298Z,25.89
2019-05-17T23:51:43.597Z,25.86
2019-05-17T23:54:15.804Z,25.82
2019-05-17T23:56:48.083Z,25.78
2019-05-17T23:59:20.411Z,25.75
